createdAt,value
2018-02-13T00:00:13.413Z,12.97
2018-02-13T00:02:40.927Z,8.63
2018-02-13T00:05:08.418Z,11.87
2018-02-13T00:07:36.210Z,17.83
2018-02-13T00:10:04.482Z,11.73
2018-02-13T00:12:31.999Z,11.23
2018-02-13T00:14:59.531Z,17.50
2018-02-13T00:17:27.050Z,10.73
2018-02-13T00:19:54.649Z,15.13
2018-02-13T00:22:22.162Z,13.27
2018-02-13T00:24:49.663Z,8.20
2018-02-13T00:27:17.179Z,11.33
2018-02-13T00:29:44.674Z,12.13
2018-02-13T00:32:12.196Z,11.80
2018-02-13T00:34:39.685Z,10.20
2018-02-13T00:37:07.999Z,13.30
2018-02-13T00:39:36.137Z,11.90
2018-02-13T00:42:03.658Z,11.00
2018-02-13T00:44:31.162Z,21.87
2018-02-13T00:46:58.682Z,17.33
2018-02-13T00:49:26.277Z,11.37
2018-02-13T00:51:53.794Z,11.20
2018-02-13T00:54:21.290Z,11.83
2018-02-13T00:56:48.856Z,12.40
2018-02-13T00:59:16.358Z,11.07
2018-02-13T01:01:43.875Z,13.80
2018-02-13T01:04:11.370Z,15.67
2018-02-13T01:06:38.886Z,14.93
2018-02-13T01:09:06.389Z,13.80
2018-02-13T01:11:33.910Z,12.93
2018-02-13T01:14:01.411Z,19.83
2018-02-13T01:16:28.926Z,17.53
2018-02-13T01:18:56.475Z,12.47
2018-02-13T01:21:23.990Z,15.60
2018-02-13T01:23:51.486Z,13.90
2018-02-13T01:26:19.003Z,14.27
2018-02-13T01:28:46.518Z,18.47
2018-02-13T01:31:14.018Z,18.20
2018-02-13T01:33:41.614Z,17.17
2018-02-13T01:36:09.873Z,18.13
2018-02-13T01:38:37.382Z,15.90
2018-02-13T01:41:04.877Z,22.13
2018-02-13T01:43:32.392Z,17.13
2018-02-13T01:45:59.885Z,21.93
2018-02-13T01:48:27.490Z,18.83
2018-02-13T01:50:55.006Z,19.27
2018-02-13T01:53:22.526Z,16.20
2018-02-13T01:55:50.030Z,20.70
2018-02-13T01:58:17.541Z,20.67
2018-02-13T02:00:45.033Z,19.00
2018-02-13T02:03:12.549Z,17.23
2018-02-13T02:05:40.093Z,22.67
2018-02-13T02:08:08.380Z,18.77
2018-02-13T02:10:37.383Z,16.60
2018-02-13T02:13:04.998Z,19.47
2018-02-13T02:15:32.504Z,17.20
2018-02-13T02:18:00.028Z,19.93
2018-02-13T02:20:28.289Z,22.93
2018-02-13T02:22:56.602Z,18.80
2018-02-13T02:25:24.106Z,20.43
2018-02-13T02:30:17.633Z,23.17
2018-02-13T02:32:45.150Z,23.50
2018-02-13T02:35:12.655Z,22.23
2018-02-13T02:37:40.214Z,19.67
2018-02-13T02:40:07.722Z,23.33
2018-02-13T02:42:47.049Z,21.00
2018-02-13T02:45:14.549Z,22.10
2018-02-13T02:47:42.834Z,25.13
2018-02-13T02:50:10.330Z,23.43
2018-02-13T02:52:37.842Z,25.87
2018-02-13T02:55:06.141Z,19.90
2018-02-13T02:57:33.658Z,35.30
2018-02-13T03:00:01.245Z,21.33
2018-02-13T03:02:28.766Z,26.80
2018-02-13T03:04:56.274Z,26.20
2018-02-13T03:07:23.793Z,26.53
2018-02-13T03:09:51.294Z,31.87
2018-02-13T03:12:18.875Z,24.63
2018-02-13T03:14:46.353Z,26.03
2018-02-13T03:17:13.866Z,20.00
2018-02-13T03:19:41.374Z,29.53
2018-02-13T03:22:08.893Z,31.53
2018-02-13T03:24:36.390Z,28.20
2018-02-13T03:27:03.986Z,32.80
2018-02-13T03:29:31.510Z,32.50
2018-02-13T03:31:59.014Z,29.13
2018-02-13T03:34:26.525Z,30.83
2018-02-13T03:36:54.028Z,30.20
2018-02-13T03:39:25.092Z,33.37
2018-02-13T03:41:55.065Z,27.87
2018-02-13T03:44:22.610Z,28.63
2018-02-13T03:46:50.878Z,35.37
2018-02-13T03:49:18.397Z,38.20
2018-02-13T03:51:45.977Z,26.57
2018-02-13T03:54:13.474Z,24.90
2018-02-13T03:56:41.777Z,26.40
2018-02-13T03:59:09.298Z,33.30
2018-02-13T04:01:37.567Z,22.37
2018-02-13T04:04:05.077Z,26.47
2018-02-13T04:06:32.578Z,28.33
2018-02-13T04:09:00.094Z,22.07
2018-02-13T04:11:27.599Z,27.13
2018-02-13T04:13:55.122Z,28.60
2018-02-13T04:16:22.617Z,36.97
2018-02-13T04:18:50.144Z,29.33
2018-02-13T04:21:17.641Z,30.60
2018-02-13T04:23:45.925Z,26.27
2018-02-13T04:26:14.190Z,33.17
2018-02-13T04:28:42.473Z,29.93
2018-02-13T04:31:10.775Z,41.70
2018-02-13T04:33:38.294Z,28.63
2018-02-13T04:36:06.562Z,26.93
2018-02-13T04:38:34.077Z,35.47
2018-02-13T04:41:01.582Z,31.13
2018-02-13T04:43:29.098Z,34.33
2018-02-13T04:45:56.597Z,30.37
2018-02-13T04:48:24.114Z,32.40
2018-02-13T04:50:51.617Z,25.90
2018-02-13T04:53:19.206Z,28.30
2018-02-13T04:55:46.701Z,29.70
2018-02-13T04:58:14.218Z,31.93
2018-02-13T05:00:42.482Z,29.37
2018-02-13T05:03:10.766Z,29.47
2018-02-13T05:05:39.030Z,26.73
2018-02-13T05:08:07.319Z,43.67
2018-02-13T05:10:35.586Z,33.10
2018-02-13T05:13:03.891Z,32.40
2018-02-13T05:15:31.635Z,26.87
2018-02-13T05:17:59.206Z,26.97
2018-02-13T05:20:26.706Z,30.60
2018-02-13T05:22:54.225Z,23.23
2018-02-13T05:25:21.730Z,24.97
2018-02-13T05:27:49.229Z,26.40
2018-02-13T05:30:17.614Z,26.93
2018-02-13T05:32:45.113Z,28.43
2018-02-13T05:35:12.625Z,32.10
2018-02-13T05:37:40.122Z,27.03
2018-02-13T05:40:07.634Z,25.47
2018-02-13T05:42:35.906Z,29.37
2018-02-13T05:45:04.194Z,32.07
2018-02-13T05:47:31.690Z,28.90
2018-02-13T05:49:59.201Z,29.03
2018-02-13T05:52:27.466Z,26.63
2018-02-13T05:54:55.749Z,27.07
2018-02-13T05:57:24.005Z,26.00
2018-02-13T05:59:51.517Z,26.30
2018-02-13T06:02:19.023Z,109.77
2018-02-13T06:04:46.542Z,65.40
2018-02-13T06:07:14.038Z,67.63
2018-02-13T06:09:42.346Z,69.40
2018-02-13T06:12:09.908Z,78.50
2018-02-13T06:14:37.432Z,48.67
2018-02-13T06:17:05.023Z,32.17
2018-02-13T06:19:32.542Z,34.40
2018-02-13T06:22:00.043Z,43.63
2018-02-13T06:24:27.557Z,36.10
2018-02-13T06:26:55.058Z,34.87
2018-02-13T06:29:22.573Z,30.93
2018-02-13T06:31:50.173Z,34.90
2018-02-13T06:34:17.733Z,33.90
2018-02-13T06:36:45.230Z,39.00
2018-02-13T06:39:12.795Z,31.10
2018-02-13T06:41:40.303Z,38.87
2018-02-13T06:44:07.828Z,37.63
2018-02-13T06:46:35.335Z,38.63
2018-02-13T06:49:02.854Z,37.03
2018-02-13T06:51:30.354Z,39.50
2018-02-13T06:53:57.877Z,36.57
2018-02-13T06:56:26.193Z,25.03
2018-02-13T06:58:54.455Z,25.93
2018-02-13T07:01:21.957Z,24.03
2018-02-13T07:03:49.471Z,27.77
2018-02-13T07:06:17.030Z,30.10
2018-02-13T07:08:44.549Z,27.40
2018-02-13T07:11:12.051Z,26.37
2018-02-13T07:13:39.575Z,37.10
2018-02-13T07:16:07.082Z,30.57
2018-02-13T07:18:34.581Z,33.33
2018-02-13T07:21:02.102Z,70.13
2018-02-13T07:23:29.643Z,36.47
2018-02-13T07:25:57.163Z,29.83
2018-02-13T07:28:24.670Z,28.60
2018-02-13T07:30:52.198Z,42.50
2018-02-13T07:33:20.470Z,246.90
2018-02-13T07:35:48.754Z,275.13
2018-02-13T07:38:17.021Z,135.10
2018-02-13T07:40:45.306Z,92.10
2018-02-13T07:43:13.595Z,81.33
2018-02-13T07:45:41.119Z,53.53
2018-02-13T07:48:08.619Z,36.70
2018-02-13T07:50:36.150Z,23.77
2018-02-13T07:53:03.726Z,29.50
2018-02-13T07:55:31.233Z,33.80
2018-02-13T07:57:58.737Z,23.60
2018-02-13T08:00:26.253Z,24.07
2018-02-13T08:02:54.546Z,59.60
2018-02-13T08:05:22.847Z,39.53
2018-02-13T08:07:50.356Z,39.33
2018-02-13T08:10:17.881Z,40.07
2018-02-13T08:12:45.392Z,42.17
2018-02-13T08:15:12.919Z,39.50
2018-02-13T08:17:40.425Z,37.43
2018-02-13T08:20:08.708Z,34.43
2018-02-13T08:22:36.982Z,34.43
2018-02-13T08:25:05.264Z,33.70
2018-02-13T08:27:32.766Z,37.80
2018-02-13T08:30:00.282Z,31.33
2018-02-13T08:32:27.790Z,31.60
2018-02-13T08:34:55.306Z,30.17
2018-02-13T08:37:22.810Z,31.60
2018-02-13T08:39:50.337Z,23.60
2018-02-13T08:42:17.853Z,29.93
2018-02-13T08:44:46.138Z,23.87
2018-02-13T08:47:14.397Z,27.07
2018-02-13T08:49:41.913Z,24.87
2018-02-13T08:52:09.414Z,26.60
2018-02-13T08:54:36.934Z,32.10
2018-02-13T08:57:04.433Z,23.77
2018-02-13T08:59:32.722Z,23.47
2018-02-13T09:02:00.985Z,22.00
2018-02-13T09:04:29.265Z,23.77
2018-02-13T09:06:57.538Z,23.50
2018-02-13T09:09:25.827Z,24.40
2018-02-13T09:11:54.094Z,21.00
2018-02-13T09:14:22.428Z,23.07
2018-02-13T09:16:49.935Z,28.13
2018-02-13T09:19:18.197Z,23.27
2018-02-13T09:21:45.718Z,25.87
2018-02-13T09:24:13.214Z,21.17
2018-02-13T09:26:40.749Z,29.93
2018-02-13T09:29:08.245Z,19.60
2018-02-13T09:31:36.525Z,24.87
2018-02-13T09:34:04.793Z,15.50
2018-02-13T09:36:33.081Z,17.40
2018-02-13T09:39:00.586Z,17.40
2018-02-13T09:41:28.149Z,18.00
2018-02-13T09:43:55.654Z,16.60
2018-02-13T09:46:23.943Z,20.30
2018-02-13T09:48:51.454Z,22.40
2018-02-13T09:51:18.974Z,18.97
2018-02-13T09:53:46.476Z,18.50
2018-02-13T09:56:13.994Z,19.70
2018-02-13T09:58:41.492Z,17.70
2018-02-13T10:01:09.010Z,16.33
2018-02-13T10:03:36.515Z,14.80
2018-02-13T10:06:04.797Z,19.80
2018-02-13T10:08:33.089Z,16.17
2018-02-13T10:11:01.358Z,15.23
2018-02-13T10:13:29.621Z,16.50
2018-02-13T10:15:57.902Z,15.73
2018-02-13T10:18:26.170Z,12.07
2018-02-13T10:20:53.685Z,7.80
2018-02-13T10:23:21.190Z,10.27
2018-02-13T10:25:49.469Z,11.83
2018-02-13T10:28:17.726Z,8.07
2018-02-13T10:30:45.254Z,7.53
2018-02-13T10:33:12.750Z,3.47
2018-02-13T10:35:40.247Z,4.80
2018-02-13T10:38:07.755Z,6.83
2018-02-13T10:40:35.254Z,9.30
2018-02-13T10:43:02.765Z,7.07
2018-02-13T10:45:30.262Z,5.33
2018-02-13T10:47:58.542Z,7.80
2018-02-13T10:50:26.035Z,4.60
2018-02-13T10:52:53.542Z,8.17
2018-02-13T10:55:21.798Z,3.90
2018-02-13T10:57:49.306Z,4.07
2018-02-13T11:00:16.802Z,6.03
2018-02-13T11:02:44.314Z,9.40
2018-02-13T11:05:11.810Z,11.07
2018-02-13T11:07:39.321Z,4.50
2018-02-13T11:10:07.569Z,7.40
2018-02-13T11:12:35.092Z,6.63
2018-02-13T11:15:02.602Z,6.50
2018-02-13T11:17:30.897Z,6.10
2018-02-13T11:19:58.410Z,7.63
2018-02-13T11:22:25.922Z,10.13
2018-02-13T11:24:53.447Z,6.97
2018-02-13T11:27:21.714Z,9.30
2018-02-13T11:29:49.222Z,9.87
2018-02-13T11:32:16.713Z,5.33
2018-02-13T11:34:44.218Z,9.60
2018-02-13T11:37:11.710Z,4.27
2018-02-13T11:39:39.242Z,4.83
2018-02-13T11:42:06.730Z,5.83
2018-02-13T11:44:34.235Z,8.13
2018-02-13T11:47:02.497Z,12.77
2018-02-13T11:49:30.003Z,7.13
2018-02-13T11:51:57.494Z,4.53
2018-02-13T11:54:25.006Z,6.20
2018-02-13T11:56:52.505Z,5.87
2018-02-13T11:59:20.014Z,7.83
2018-02-13T12:01:47.506Z,8.50
2018-02-13T12:04:15.018Z,7.60
2018-02-13T12:06:43.278Z,3.57
2018-02-13T12:09:11.558Z,4.50
2018-02-13T12:11:39.818Z,11.37
2018-02-13T12:14:07.342Z,5.97
2018-02-13T12:16:34.849Z,4.03
2018-02-13T12:19:03.125Z,6.93
2018-02-13T12:21:31.387Z,8.70
2018-02-13T12:23:58.889Z,4.83
2018-02-13T12:26:26.381Z,8.43
2018-02-13T12:28:53.885Z,4.83
2018-02-13T12:31:22.138Z,7.07
2018-02-13T12:33:49.642Z,5.77
2018-02-13T12:36:17.208Z,5.50
2018-02-13T12:38:45.441Z,7.10
2018-02-13T12:41:13.734Z,5.20
2018-02-13T12:43:42.026Z,7.13
2018-02-13T12:46:09.786Z,4.97
2018-02-13T12:48:37.350Z,5.37
2018-02-13T12:51:05.658Z,7.20
2018-02-13T12:53:33.170Z,7.57
2018-02-13T12:56:01.421Z,7.93
2018-02-13T12:58:28.934Z,9.87
2018-02-13T13:00:56.426Z,8.93
2018-02-13T13:03:23.926Z,7.07
2018-02-13T13:05:51.438Z,8.43
2018-02-13T13:08:18.930Z,7.10
2018-02-13T13:10:47.203Z,8.90
2018-02-13T13:13:15.458Z,14.00
2018-02-13T13:15:42.969Z,7.57
2018-02-13T13:18:10.471Z,11.97
2018-02-13T13:20:37.977Z,12.83
2018-02-13T13:23:05.465Z,8.47
2018-02-13T13:25:32.972Z,7.77
2018-02-13T13:28:01.227Z,9.87
2018-02-13T13:30:29.513Z,11.20
2018-02-13T13:32:57.773Z,12.40
2018-02-13T13:35:25.277Z,9.57
2018-02-13T13:37:52.775Z,11.80
2018-02-13T13:40:20.291Z,8.67
2018-02-13T13:42:47.787Z,8.90
2018-02-13T13:45:15.293Z,9.00
2018-02-13T13:47:42.784Z,12.93
2018-02-13T13:50:10.290Z,11.53
2018-02-13T13:52:38.541Z,8.17
2018-02-13T13:55:06.046Z,6.20
2018-02-13T13:57:33.541Z,7.27
2018-02-13T14:00:01.046Z,8.50
2018-02-13T14:02:29.310Z,7.47
2018-02-13T14:04:56.821Z,5.73
2018-02-13T14:07:24.318Z,15.03
2018-02-13T14:09:51.826Z,11.40
2018-02-13T14:12:19.404Z,10.83
2018-02-13T14:14:46.928Z,10.67
2018-02-13T14:17:17.888Z,7.63
2018-02-13T14:19:45.411Z,8.87
2018-02-13T14:22:13.673Z,9.57
2018-02-13T14:24:41.187Z,8.17
2018-02-13T14:27:08.691Z,12.53
2018-02-13T14:29:36.974Z,10.07
2018-02-13T14:32:05.233Z,12.97
2018-02-13T14:34:32.741Z,13.53
2018-02-13T14:37:00.235Z,9.43
2018-02-13T14:39:27.746Z,11.87
2018-02-13T14:41:55.280Z,12.13
2018-02-13T14:44:22.770Z,9.80
2018-02-13T14:46:50.266Z,10.50
2018-02-13T14:49:17.773Z,9.70
2018-02-13T14:51:45.262Z,11.00
2018-02-13T14:54:12.749Z,14.67
2018-02-13T14:56:40.253Z,14.50
2018-02-13T14:59:07.741Z,12.17
2018-02-13T15:01:35.245Z,12.97
2018-02-13T15:04:03.504Z,11.00
2018-02-13T15:06:31.018Z,12.13
2018-02-13T15:08:58.519Z,12.90
2018-02-13T15:11:26.033Z,15.70
2018-02-13T15:13:53.534Z,19.33
2018-02-13T15:16:21.050Z,13.77
2018-02-13T15:18:48.545Z,12.20
2018-02-13T15:21:16.058Z,13.70
2018-02-13T15:23:43.561Z,10.20
2018-02-13T15:26:11.082Z,13.23
2018-02-13T15:28:38.581Z,12.67
2018-02-13T15:31:06.112Z,11.87
2018-02-13T15:33:33.611Z,19.97
2018-02-13T15:36:01.899Z,13.23
2018-02-13T15:38:30.170Z,15.63
2018-02-13T15:41:00.037Z,12.27
2018-02-13T15:43:29.964Z,12.00
2018-02-13T15:46:00.835Z,12.37
2018-02-13T15:48:28.598Z,13.07
2018-02-13T15:50:58.232Z,9.40
2018-02-13T15:53:28.534Z,10.47
2018-02-13T15:56:01.613Z,10.70
2018-02-13T15:58:36.758Z,11.93
2018-02-13T16:01:05.861Z,11.97
2018-02-13T16:03:35.853Z,11.10
2018-02-13T16:06:08.496Z,14.67
2018-02-13T16:08:37.398Z,15.37
2018-02-13T16:13:38.573Z,16.80
2018-02-13T16:16:07.593Z,15.80
2018-02-13T16:18:35.877Z,15.50
2018-02-13T16:21:04.262Z,19.13
2018-02-13T16:23:31.757Z,14.73
2018-02-13T16:25:59.275Z,21.43
2018-02-13T16:28:26.837Z,14.17
2018-02-13T16:30:54.333Z,16.30
2018-02-13T16:33:21.841Z,15.37
2018-02-13T16:35:50.111Z,15.37
2018-02-13T16:38:18.389Z,13.90
2018-02-13T16:40:45.966Z,18.47
2018-02-13T16:43:13.493Z,17.03
2018-02-13T16:45:41.082Z,15.27
2018-02-13T16:48:08.602Z,15.33
2018-02-13T16:50:36.097Z,28.13
2018-02-13T16:53:03.614Z,24.87
2018-02-13T16:55:32.627Z,21.00
2018-02-13T16:58:00.914Z,21.20
2018-02-13T17:00:29.186Z,19.13
2018-02-13T17:02:57.577Z,23.77
2018-02-13T17:05:25.148Z,21.23
2018-02-13T17:07:52.641Z,21.83
2018-02-13T17:10:20.259Z,24.70
2018-02-13T17:12:47.814Z,21.40
2018-02-13T17:15:15.330Z,24.10
2018-02-13T17:17:42.934Z,23.40
2018-02-13T17:20:10.458Z,25.20
2018-02-13T17:22:37.957Z,18.97
2018-02-13T17:25:05.508Z,23.53
2018-02-13T17:27:33.076Z,24.77
2018-02-13T17:30:00.557Z,26.83
2018-02-13T17:32:28.078Z,20.23
2018-02-13T17:34:56.357Z,20.67
2018-02-13T17:37:23.859Z,26.27
2018-02-13T17:39:51.482Z,16.07
2018-02-13T17:42:18.978Z,24.00
2018-02-13T17:44:46.592Z,21.10
2018-02-13T17:47:14.877Z,22.17
2018-02-13T17:49:42.440Z,20.17
2018-02-13T17:52:09.959Z,20.43
2018-02-13T17:54:37.478Z,21.40
2018-02-13T17:57:05.011Z,29.33
2018-02-13T17:59:32.570Z,21.50
2018-02-13T18:02:00.142Z,19.70
2018-02-13T18:04:27.696Z,21.33
2018-02-13T18:06:55.259Z,25.73
2018-02-13T18:09:23.628Z,26.67
2018-02-13T18:11:51.182Z,25.67
2018-02-13T18:14:18.702Z,28.57
2018-02-13T18:16:46.202Z,25.87
2018-02-13T18:19:13.726Z,24.40
2018-02-13T18:21:41.231Z,26.83
2018-02-13T18:24:08.763Z,28.07
2018-02-13T18:26:37.029Z,31.30
2018-02-13T18:29:05.301Z,31.27
2018-02-13T18:31:33.581Z,30.90
2018-02-13T18:34:01.846Z,27.80
2018-02-13T18:36:29.370Z,28.70
2018-02-13T18:38:56.874Z,31.17
2018-02-13T18:41:25.159Z,27.20
2018-02-13T18:43:52.666Z,24.97
2018-02-13T18:46:20.188Z,22.63
2018-02-13T18:48:47.699Z,28.63
2018-02-13T18:51:15.227Z,29.57
2018-02-13T18:53:42.728Z,36.90
2018-02-13T18:56:10.294Z,36.73
2018-02-13T18:58:38.559Z,27.17
2018-02-13T19:01:06.053Z,31.30
2018-02-13T19:03:33.571Z,30.27
2018-02-13T19:06:01.079Z,29.50
2018-02-13T19:08:28.598Z,33.20
2018-02-13T19:10:56.098Z,31.17
2018-02-13T19:13:23.619Z,32.57
2018-02-13T19:15:51.887Z,31.97
2018-02-13T19:18:19.402Z,34.93
2018-02-13T19:20:46.904Z,34.50
2018-02-13T19:23:14.462Z,32.50
2018-02-13T19:25:41.954Z,39.33
2018-02-13T19:28:09.477Z,32.33
2018-02-13T19:30:36.977Z,37.17
2018-02-13T19:33:04.490Z,37.63
2018-02-13T19:35:32.051Z,34.00
2018-02-13T19:38:00.390Z,34.40
2018-02-13T19:40:29.603Z,40.43
2018-02-13T19:42:58.664Z,39.53
2018-02-13T19:45:29.083Z,40.53
2018-02-13T19:47:56.692Z,37.70
2018-02-13T19:50:24.679Z,33.80
2018-02-13T19:52:52.381Z,39.63
2018-02-13T19:55:19.914Z,43.70
2018-02-13T19:57:48.215Z,40.60
2018-02-13T20:00:16.253Z,44.20
2018-02-13T20:02:44.517Z,32.93
2018-02-13T20:05:12.047Z,45.10
2018-02-13T20:07:39.554Z,40.63
2018-02-13T20:10:07.839Z,41.87
2018-02-13T20:12:35.346Z,43.53
2018-02-13T20:15:02.874Z,45.83
2018-02-13T20:17:30.378Z,43.40
2018-02-13T20:19:57.896Z,40.03
2018-02-13T20:22:25.401Z,46.60
2018-02-13T20:24:52.927Z,41.53
2018-02-13T20:27:20.437Z,39.50
2018-02-13T20:29:48.732Z,44.50
2018-02-13T20:32:16.237Z,40.27
2018-02-13T20:34:43.758Z,41.33
2018-02-13T20:37:11.264Z,43.10
2018-02-13T20:39:38.789Z,43.43
2018-02-13T20:42:06.294Z,38.13
2018-02-13T20:44:34.582Z,45.63
2018-02-13T20:47:02.846Z,39.87
2018-02-13T20:49:31.127Z,44.73
2018-02-13T20:51:59.398Z,44.07
2018-02-13T20:54:27.681Z,47.03
2018-02-13T20:56:55.950Z,40.63
2018-02-13T20:59:24.241Z,41.90
2018-02-13T21:01:52.513Z,47.03
2018-02-13T21:04:20.802Z,40.97
2018-02-13T21:06:48.310Z,49.20
2018-02-13T21:09:15.809Z,42.03
2018-02-13T21:11:44.098Z,45.07
2018-02-13T21:14:11.615Z,48.03
2018-02-13T21:16:39.165Z,45.47
2018-02-13T21:19:06.696Z,42.80
2018-02-13T21:21:34.265Z,44.23
2018-02-13T21:24:01.844Z,47.97
2018-02-13T21:26:29.384Z,53.57
2018-02-13T21:28:56.942Z,46.13
2018-02-13T21:31:24.548Z,45.37
2018-02-13T21:33:52.138Z,49.80
2018-02-13T21:36:19.653Z,50.77
2018-02-13T21:38:47.248Z,50.33
2018-02-13T21:41:14.849Z,54.87
2018-02-13T21:43:42.453Z,38.60
2018-02-13T21:46:10.836Z,49.73
2018-02-13T21:48:38.371Z,42.27
2018-02-13T21:51:06.744Z,42.67
2018-02-13T21:53:34.297Z,45.00
2018-02-13T21:56:01.925Z,43.37
2018-02-13T21:58:29.432Z,47.10
2018-02-13T22:00:57.763Z,40.47
2018-02-13T22:03:25.615Z,47.40
2018-02-13T22:05:53.898Z,44.97
2018-02-13T22:08:21.431Z,43.07
2018-02-13T22:10:48.947Z,46.07
2018-02-13T22:13:16.466Z,43.13
2018-02-13T22:15:43.961Z,48.00
2018-02-13T22:18:11.479Z,46.63
2018-02-13T22:20:38.983Z,47.53
2018-02-13T22:23:06.507Z,43.53
2018-02-13T22:25:34.013Z,47.50
2018-02-13T22:28:01.539Z,43.03
2018-02-13T22:30:29.103Z,39.87
2018-02-13T22:32:56.624Z,39.73
2018-02-13T22:35:24.126Z,49.40
2018-02-13T22:37:51.642Z,40.43
2018-02-13T22:40:19.146Z,47.80
2018-02-13T22:42:46.706Z,44.83
2018-02-13T22:45:14.209Z,42.60
2018-02-13T22:47:41.714Z,47.10
2018-02-13T22:50:09.229Z,56.93
2018-02-13T22:52:36.761Z,56.10
2018-02-13T22:55:05.041Z,46.07
2018-02-13T22:57:33.354Z,42.77
2018-02-13T23:00:12.697Z,50.40
2018-02-13T23:02:40.198Z,46.27
2018-02-13T23:05:07.723Z,43.53
2018-02-13T23:07:35.231Z,47.97
2018-02-13T23:10:03.518Z,53.17
2018-02-13T23:12:31.021Z,48.10
2018-02-13T23:14:58.539Z,44.40
2018-02-13T23:17:26.037Z,43.77
2018-02-13T23:19:53.563Z,54.07
2018-02-13T23:22:21.069Z,48.60
2018-02-13T23:24:48.638Z,41.63
2018-02-13T23:27:16.967Z,50.57
2018-02-13T23:29:44.607Z,41.43
2018-02-13T23:32:12.132Z,44.57
2018-02-13T23:34:41.908Z,42.53
2018-02-13T23:37:10.196Z,46.60
2018-02-13T23:39:37.725Z,45.27
2018-02-13T23:42:05.389Z,53.80
2018-02-13T23:44:32.915Z,55.60
2018-02-13T23:47:01.178Z,55.07
2018-02-13T23:49:28.703Z,47.00
2018-02-13T23:51:56.206Z,45.70
2018-02-13T23:54:24.490Z,53.60
2018-02-13T23:56:52.763Z,53.40
2018-02-13T23:59:21.051Z,48.43
